Pag — 9A2798 — position and weather

sailwx.info

Track history (hours):
 
Tides and Currents Weather Stations Pressure Air Temp Water Temp Dewpoint Dewpoint Depression Visibility Wind Speed Wind Dir Waves Ship Positions

Pag

Last reported at 2018-Jan-03 03:15 UTC. Time now 2018-Feb-17 23:43 UTC.
Position N 28°33' W 116°37'.
Warning: this ship's position is 45 days out of date.

Length 183 m; draft 12.1 m.

Type: Ship (hazmat cat B). MMSI: 238009000.

Date/timePositionNaut miles runAvg speedWind from/ knotsBaromVisibWave heightAir tempDewpointWater temp
2018-Jan-03 03:15N 28°33' W 116°37'411.8
2018-Jan-03 02:54N 28°37' W 116°38'511.9
2018-Jan-03 02:28N 28°42' W 116°40'1712.2
2018-Jan-03 01:06N 28°59' W 116°44'212.2
2018-Jan-03 00:58N 29°00' W 116°44'612.3
2018-Jan-03 00:30N 29°06' W 116°46'612.3
2018-Jan-03 00:00N 29°12' W 116°47'712.4
2018-Jan-02 23:26N 29°19' W 116°49'612.7
2018-Jan-02 22:59N 29°24' W 116°51'2912.9
2018-Jan-02 20:43N 29°53' W 116°58'313.0
2018-Jan-02 20:27N 29°56' W 116°59'712.6
2018-Jan-02 19:55N 30°02' W 117°01'512.6
2018-Jan-02 19:29N 30°08' W 117°02'612.8
2018-Jan-02 19:00N 30°14' W 117°04'1112.9
2018-Jan-02 18:09N 30°24' W 117°07'1412.5
2018-Jan-02 17:01N 30°38' W 117°11'013.5
2018-Jan-02 17:00N 30°38' W 117°11'1112.3
2018-Jan-02 16:05N 30°50' W 117°14'112.2
2018-Jan-02 16:00N 30°50' W 117°14'712.4
2018-Jan-02 15:26N 30°57' W 117°16'612.5
2018-Jan-02 14:57N 31°03' W 117°17'1812.6
2018-Jan-02 13:33N 31°20' W 117°22'113.0
2018-Jan-02 13:27N 31°22' W 117°22'3012.9
2018-Jan-02 11:04N 31°52' W 117°31'112.3
2018-Jan-02 11:00N 31°52' W 117°31'611.8
2018-Jan-02 10:30N 31°58' W 117°32'611.5
2018-Jan-02 10:00N 32°04' W 117°34'611.5
2018-Jan-02 09:29N 32°09' W 117°35'1211.6
2018-Jan-02 08:27N 32°21' W 117°39'612.0
2018-Jan-02 08:00N 32°27' W 117°39'612.6
2018-Jan-02 07:30N 32°33' W 117°39'612.1
2018-Jan-02 07:00N 32°39' W 117°41'612.5
2018-Jan-02 06:31N 32°44' W 117°44'612.8
2018-Jan-02 06:00N 32°50' W 117°48'612.5
2018-Jan-02 05:30N 32°56' W 117°51'1412.0
2018-Jan-02 04:21N 33°08' W 117°59'411.9
2018-Jan-02 04:00N 33°11' W 118°01'611.8
2018-Jan-02 03:31N 33°17' W 118°04'611.6
2018-Jan-02 03:00N 33°22' W 118°07'611.8
2018-Jan-02 02:30N 33°28' W 118°09'611.9
2018-Jan-02 02:00N 33°33' W 118°12'510.9
2018-Jan-02 01:30N 33°39' W 118°12'5 9.3
2018-Jan-02 01:00N 33°43' W 118°11'1 1.0
2018-Jan-02 00:18N 33°44' W 118°10'0 0.0
2018-Jan-01 23:59N 33°44' W 118°10'0 0.1
2018-Jan-01 23:30N 33°44' W 118°10'0 0.0
2018-Jan-01 22:48N 33°44' W 118°10'0 0.2
2018-Jan-01 22:30N 33°44' W 118°10'0 0.1
2018-Jan-01 22:00N 33°44' W 118°10'1 1.6
2018-Jan-01 21:30N 33°44' W 118°11'2 4.4
2018-Jan-01 21:00N 33°46' W 118°13'1 1.9
2018-Jan-01 20:30N 33°46' W 118°13'0 0.0
2017-Dec-31 20:09N 33°47' W 118°13'0 0.0
2017-Dec-31 20:00N 33°47' W 118°13'1 2.2
2017-Dec-31 19:28N 33°45' W 118°13'2 3.1
2017-Dec-31 18:55N 33°44' W 118°12'0 0.0
2017-Dec-31 14:47N 33°44' W 118°12'0 0.0
2017-Dec-31 12:11N 33°44' W 118°12'0 0.1
2017-Dec-31 11:59N 33°44' W 118°12'0 0.0
2017-Dec-31 11:17N 33°44' W 118°12'0 0.0
2017-Dec-31 10:59N 33°44' W 118°12'0 0.1
2017-Dec-31 10:11N 33°44' W 118°12'0 0.3
2017-Dec-31 09:59N 33°44' W 118°12'0 0.0
2017-Dec-31 09:17N 33°44' W 118°12'0 0.2
2017-Dec-31 08:59N 33°44' W 118°12'1 1.5
2017-Dec-31 08:25N 33°44' W 118°11'2 1.9
2017-Dec-31 07:25N 33°42' W 118°09'0 0.0
2017-Dec-31 06:45N 33°42' W 118°09'0 0.1
2017-Dec-31 06:28N 33°42' W 118°09'0 0.0
2017-Dec-31 06:01N 33°42' W 118°09'0 0.0
2017-Dec-31 05:30N 33°42' W 118°09'0 0.0
2017-Dec-31 04:56N 33°42' W 118°09'0 0.1
2017-Dec-31 04:29N 33°42' W 118°09'0 0.1
2017-Dec-31 04:00N 33°42' W 118°09'0 0.1
2017-Dec-31 03:30N 33°42' W 118°09'0 0.0
2017-Dec-31 03:00N 33°42' W 118°09'0 0.1
2017-Dec-31 02:31N 33°42' W 118°09'0 0.0
2017-Dec-31 02:00N 33°42' W 118°09'0 0.0
2017-Dec-31 01:31N 33°42' W 118°09'0 0.1
2017-Dec-31 01:01N 33°42' W 118°09'0 0.0
2017-Dec-31 00:30N 33°42' W 118°09'0 0.0
2017-Dec-31 00:00N 33°42' W 118°09'0 0.1
2017-Dec-30 23:06N 33°42' W 118°09'0 0.1
2017-Dec-30 23:00N 33°42' W 118°09'0 0.0
2017-Dec-30 22:30N 33°42' W 118°09'0 0.0
2017-Dec-30 22:00N 33°42' W 118°09'0 0.2
2017-Dec-30 21:30N 33°42' W 118°10'0 0.2
2017-Dec-30 21:00N 33°42' W 118°10'0 0.2
2017-Dec-30 20:28N 33°42' W 118°10'2 4.0
2017-Dec-30 20:00N 33°40' W 118°10'4 8.2
2017-Dec-30 19:30N 33°37' W 118°13'5 9.8
2017-Dec-30 18:58N 33°36' W 118°19'510.0
2017-Dec-30 18:29N 33°37' W 118°25'510.7
2017-Dec-30 18:00N 33°40' W 118°29'611.4
2017-Dec-30 17:31N 33°43' W 118°35'611.6
2017-Dec-30 17:00N 33°46' W 118°41'611.5
2017-Dec-30 16:30N 33°49' W 118°47'611.2
2017-Dec-30 16:00N 33°52' W 118°53'611.0
2017-Dec-30 15:30N 33°55' W 118°59'511.1
2017-Dec-30 15:00N 33°57' W 119°05'611.6
2017-Dec-30 14:27N 34°00' W 119°11'511.4
2017-Dec-30 14:00N 34°03' W 119°17'611.7
2017-Dec-30 13:29N 34°05' W 119°24'611.9
2017-Dec-30 13:00N 34°06' W 119°31'611.7
2017-Dec-30 12:29N 34°08' W 119°38'612.0
2017-Dec-30 11:59N 34°09' W 119°45'612.7
2017-Dec-30 11:30N 34°11' W 119°52'612.6
2017-Dec-30 11:00N 34°13' W 119°59'612.5
2017-Dec-30 10:29N 34°14' W 120°07'612.0
2017-Dec-30 10:00N 34°16' W 120°13'711.8
2017-Dec-30 09:26N 34°18' W 120°21'511.9
2017-Dec-30 08:59N 34°19' W 120°27'611.8
2017-Dec-30 08:30N 34°20' W 120°34'612.1
2017-Dec-30 08:00N 34°22' W 120°41'612.1
2017-Dec-30 07:30N 34°24' W 120°48'612.2
2017-Dec-30 07:01N 34°25' W 120°55'612.1
2017-Dec-30 06:29N 34°27' W 121°03'612.0
2017-Dec-30 06:00N 34°28' W 121°09'612.0
2017-Dec-30 05:31N 34°29' W 121°17'611.8
2017-Dec-30 05:01N 34°31' W 121°23'611.4
2017-Dec-30 04:30N 34°33' W 121°30'2 3.9
2017-Dec-30 04:00N 34°32' W 121°32'510.5
2017-Dec-30 03:31N 34°34' W 121°38'611.8
2017-Dec-30 03:01N 34°37' W 121°44'612.2
2017-Dec-30 02:30N 34°42' W 121°49'612.2
2017-Dec-30 02:00N 34°47' W 121°53'612.3
2017-Dec-30 01:31N 34°52' W 121°58'612.4
2017-Dec-30 01:01N 34°56' W 122°03'612.4
2017-Dec-30 00:31N 35°01' W 122°07'612.3
2017-Dec-30 00:01N 35°06' W 122°12'612.5
2017-Dec-29 23:31N 35°11' W 122°17'612.6
2017-Dec-29 23:01N 35°16' W 122°22'612.7
2017-Dec-29 22:31N 35°21' W 122°26'612.8
2017-Dec-29 22:00N 35°26' W 122°31'612.9
2017-Dec-29 21:30N 35°31' W 122°36'613.0
2017-Dec-29 21:01N 35°36' W 122°41'713.1
2017-Dec-29 20:30N 35°41' W 122°47'613.0
2017-Dec-29 20:01N 35°46' W 122°51'713.0
2017-Dec-29 19:30N 35°51' W 122°57'713.4
2017-Dec-29 19:01N 35°57' W 123°01'713.2
2017-Dec-29 18:31N 36°03' W 123°05'713.3
2017-Dec-29 18:01N 36°09' W 123°08'713.4
2017-Dec-29 17:31N 36°15' W 123°11'713.3
2017-Dec-29 17:01N 36°21' W 123°15'713.4
2017-Dec-29 16:31N 36°27' W 123°18'612.8
2017-Dec-29 16:00N 36°33' W 123°22'612.9
2017-Dec-29 15:30N 36°39' W 123°25'612.8
2017-Dec-29 15:01N 36°45' W 123°28'612.7
2017-Dec-29 14:30N 36°51' W 123°31'612.5
2017-Dec-29 14:00N 36°57' W 123°32'612.9
2017-Dec-29 13:31N 37°03' W 123°31'713.1
2017-Dec-29 13:01N 37°10' W 123°31'612.9
2017-Dec-29 12:30N 37°16' W 123°31'611.8
2017-Dec-29 12:00N 37°22' W 123°28'713.6
2017-Dec-29 11:30N 37°25' W 123°20'713.6
2017-Dec-29 11:00N 37°29' W 123°13'713.4
2017-Dec-29 10:30N 37°33' W 123°06'612.8
2017-Dec-29 10:00N 37°37' W 122°60'612.7
2017-Dec-29 09:30N 37°40' W 122°53'612.7
2017-Dec-29 09:00N 37°44' W 122°46'611.1
2017-Dec-29 08:30N 37°46' W 122°40'611.3
2017-Dec-29 08:00N 37°48' W 122°33'611.9
2017-Dec-29 07:30N 37°51' W 122°27'3 6.8
2017-Dec-29 07:00N 37°54' W 122°26'5 9.6
2017-Dec-29 06:30N 37°59' W 122°26'5 9.4
2017-Dec-29 06:00N 38°02' W 122°22'4 8.7
2017-Dec-29 05:30N 38°04' W 122°17'4 8.1
2017-Dec-29 05:00N 38°03' W 122°11'3 5.5
2017-Dec-29 04:30N 38°02' W 122°08'3 0.1
2017-Dec-27 04:20N 38°03' W 122°05'2 3.4
2017-Dec-27 03:51N 38°02' W 122°07'3 7.8
2017-Dec-27 03:30N 38°03' W 122°11'611.3
2017-Dec-27 03:00N 38°03' W 122°18'611.5
2017-Dec-27 02:30N 38°01' W 122°24'612.7
2017-Dec-27 02:01N 37°55' W 122°27'5 9.1
2017-Dec-27 01:30N 37°50' W 122°27'713.4
2017-Dec-27 01:01N 37°47' W 122°35'611.4
2017-Dec-27 00:31N 37°44' W 122°41'510.6
2017-Dec-27 00:01N 37°41' W 122°46'612.4
2017-Dec-26 23:30N 37°37' W 122°53'611.5
2017-Dec-26 23:00N 37°34' W 122°59'510.6
2017-Dec-26 22:30N 37°31' W 123°04'510.5
2017-Dec-26 22:01N 37°31' W 123°10'510.7
2017-Dec-26 21:30N 37°32' W 123°17'4 6.8
2017-Dec-26 20:55N 37°31' W 123°22'614.3
2017-Dec-26 20:30N 37°31' W 123°30'814.9
2017-Dec-26 20:00N 37°32' W 123°39'714.8
2017-Dec-26 19:30N 37°32' W 123°48'714.7
2017-Dec-26 19:01N 37°32' W 123°57'714.9
2017-Dec-26 18:30N 37°33' W 124°07'714.0
2017-Dec-26 18:00N 37°33' W 124°16'510.8
2017-Dec-26 17:30N 37°33' W 124°23'510.7
2017-Dec-26 17:00N 37°34' W 124°16'5 9.7
2017-Dec-26 16:30N 37°35' W 124°10'3 6.1
2017-Dec-26 16:00N 37°32' W 124°11'4 8.9
2017-Dec-26 15:30N 37°27' W 124°12'5 9.7
2017-Dec-26 15:00N 37°23' W 124°10'5 9.6
2017-Dec-26 14:30N 37°18' W 124°08'5 9.9
2017-Dec-26 14:00N 37°14' W 124°06'510.6
2017-Dec-26 13:30N 37°09' W 124°03'510.5
2017-Dec-26 13:01N 37°04' W 124°01'510.3
2017-Dec-26 12:30N 36°59' W 123°58'510.2
2017-Dec-26 12:00N 36°55' W 123°55'510.4
2017-Dec-26 11:31N 36°50' W 123°53'510.7
2017-Dec-26 11:00N 36°45' W 123°50'510.4
2017-Dec-26 10:30N 36°40' W 123°47'510.4
2017-Dec-26 09:59N 36°35' W 123°44'2210.4
2017-Dec-26 07:50N 36°15' W 123°34'3 9.9
2017-Dec-26 07:30N 36°12' W 123°32'510.0
2017-Dec-26 07:00N 36°07' W 123°30'510.2
2017-Dec-26 06:30N 36°02' W 123°27'5 9.9
2017-Dec-26 06:00N 35°58' W 123°25'510.1
2017-Dec-26 05:30N 35°53' W 123°22'5 9.9
2017-Dec-26 05:00N 35°49' W 123°20'5 9.8
2017-Dec-26 04:30N 35°44' W 123°17'5 9.9
2017-Dec-26 04:00N 35°40' W 123°15'510.0
2017-Dec-26 03:30N 35°35' W 123°13'510.1
2017-Dec-26 03:00N 35°30' W 123°10'510.2
2017-Dec-26 02:30N 35°26' W 123°08'510.3
2017-Dec-26 02:00N 35°21' W 123°05'510.4
2017-Dec-26 01:30N 35°16' W 123°03'510.7
2017-Dec-26 01:00N 35°11' W 123°01'510.6
2017-Dec-26 00:30N 35°06' W 122°58'510.4
2017-Dec-26 00:00N 35°02' W 122°55'510.3
2017-Dec-25 23:30N 34°57' W 122°52'510.3
2017-Dec-25 23:00N 34°52' W 122°50'510.6
2017-Dec-25 22:30N 34°47' W 122°48'510.5
2017-Dec-25 22:00N 34°42' W 122°45'510.3
2017-Dec-25 21:30N 34°38' W 122°43'510.7
2017-Dec-25 21:00N 34°33' W 122°40'612.0
2017-Dec-25 20:30N 34°28' W 122°36'713.0
2017-Dec-25 20:00N 34°28' W 122°28'613.0
2017-Dec-25 19:30N 34°28' W 122°20'713.3
2017-Dec-25 19:00N 34°28' W 122°12'713.1
2017-Dec-25 18:30N 34°28' W 122°04'713.2
2017-Dec-25 18:00N 34°28' W 121°56'713.4
2017-Dec-25 17:30N 34°28' W 121°48'713.5
2017-Dec-25 17:00N 34°28' W 121°40'713.4
2017-Dec-25 16:30N 34°28' W 121°32'713.4
2017-Dec-25 16:00N 34°28' W 121°24'713.5
2017-Dec-25 15:30N 34°28' W 121°15'713.3
2017-Dec-25 15:00N 34°28' W 121°07'612.9
2017-Dec-25 14:30N 34°28' W 120°59'612.8
2017-Dec-25 14:00N 34°26' W 120°52'712.9
2017-Dec-25 13:30N 34°24' W 120°44'612.6
2017-Dec-25 13:00N 34°22' W 120°38'713.0
2017-Dec-25 12:30N 34°21' W 120°30'713.1
2017-Dec-25 12:00N 34°19' W 120°22'713.6
2017-Dec-25 11:30N 34°17' W 120°14'713.3
2017-Dec-25 10:58N 34°15' W 120°06'713.4
2017-Dec-25 10:29N 34°14' W 119°58'613.2
2017-Dec-25 10:00N 34°12' W 119°51'712.8
2017-Dec-25 09:30N 34°10' W 119°43'713.3
2017-Dec-25 09:00N 34°09' W 119°36'713.2
2017-Dec-25 08:30N 34°07' W 119°28'713.4
2017-Dec-25 07:57N 34°05' W 119°19'613.4
2017-Dec-25 07:30N 34°03' W 119°12'612.7
2017-Dec-25 07:00N 33°60' W 119°06'611.8
2017-Dec-25 06:30N 33°57' W 118°60'611.8
2017-Dec-25 06:00N 33°54' W 118°53'612.1
2017-Dec-25 05:30N 33°51' W 118°47'611.9
2017-Dec-25 05:00N 33°48' W 118°41'611.7
2017-Dec-25 04:30N 33°45' W 118°35'612.0
2017-Dec-25 04:00N 33°42' W 118°28'611.5
2017-Dec-25 03:30N 33°39' W 118°22'510.9
2017-Dec-25 03:00N 33°39' W 118°16'4 7.9
2017-Dec-25 02:30N 33°42' W 118°13'0 0.2
2017-Dec-25 01:35N 33°42' W 118°13'0 0.0
2017-Dec-25 01:20N 33°42' W 118°13'0 0.0
2017-Dec-25 00:46N 33°42' W 118°13'0 0.0
2017-Dec-25 00:07N 33°42' W 118°13'0 0.1
2017-Dec-25 00:00N 33°42' W 118°13'0 0.3
2017-Dec-24 23:30N 33°42' W 118°13'3 5.7
2017-Dec-24 23:00N 33°43' W 118°16'  
Track history (hours):
 
Tides and Currents Weather Stations Pressure Air Temp Water Temp Dewpoint Dewpoint Depression Visibility Wind Speed Wind Dir Waves Ship Positions

Pag

Last reported at 2018-Jan-03 03:15 UTC. Time now 2018-Feb-17 23:43 UTC.
Position N 28°33' W 116°37'.
Warning: this ship's position is 45 days out of date.

Length 183 m; draft 12.1 m.

Type: Ship (hazmat cat B). MMSI: 238009000.

Date/timePositionNaut miles runAvg speedWind from/ knotsBaromVisibWave heightAir tempDewpointWater temp
2018-Jan-03 03:15N 28°33' W 116°37'411.8
2018-Jan-03 02:54N 28°37' W 116°38'511.9
2018-Jan-03 02:28N 28°42' W 116°40'1712.2
2018-Jan-03 01:06N 28°59' W 116°44'212.2
2018-Jan-03 00:58N 29°00' W 116°44'612.3
2018-Jan-03 00:30N 29°06' W 116°46'612.3
2018-Jan-03 00:00N 29°12' W 116°47'712.4
2018-Jan-02 23:26N 29°19' W 116°49'612.7
2018-Jan-02 22:59N 29°24' W 116°51'2912.9
2018-Jan-02 20:43N 29°53' W 116°58'313.0
2018-Jan-02 20:27N 29°56' W 116°59'712.6
2018-Jan-02 19:55N 30°02' W 117°01'512.6
2018-Jan-02 19:29N 30°08' W 117°02'612.8
2018-Jan-02 19:00N 30°14' W 117°04'1112.9
2018-Jan-02 18:09N 30°24' W 117°07'1412.5
2018-Jan-02 17:01N 30°38' W 117°11'013.5
2018-Jan-02 17:00N 30°38' W 117°11'1112.3
2018-Jan-02 16:05N 30°50' W 117°14'112.2
2018-Jan-02 16:00N 30°50' W 117°14'712.4
2018-Jan-02 15:26N 30°57' W 117°16'612.5
2018-Jan-02 14:57N 31°03' W 117°17'1812.6
2018-Jan-02 13:33N 31°20' W 117°22'113.0
2018-Jan-02 13:27N 31°22' W 117°22'3012.9
2018-Jan-02 11:04N 31°52' W 117°31'112.3
2018-Jan-02 11:00N 31°52' W 117°31'611.8
2018-Jan-02 10:30N 31°58' W 117°32'611.5
2018-Jan-02 10:00N 32°04' W 117°34'611.5
2018-Jan-02 09:29N 32°09' W 117°35'1211.6
2018-Jan-02 08:27N 32°21' W 117°39'612.0
2018-Jan-02 08:00N 32°27' W 117°39'612.6
2018-Jan-02 07:30N 32°33' W 117°39'612.1
2018-Jan-02 07:00N 32°39' W 117°41'612.5
2018-Jan-02 06:31N 32°44' W 117°44'612.8
2018-Jan-02 06:00N 32°50' W 117°48'612.5
2018-Jan-02 05:30N 32°56' W 117°51'1412.0
2018-Jan-02 04:21N 33°08' W 117°59'411.9
2018-Jan-02 04:00N 33°11' W 118°01'611.8
2018-Jan-02 03:31N 33°17' W 118°04'611.6
2018-Jan-02 03:00N 33°22' W 118°07'611.8
2018-Jan-02 02:30N 33°28' W 118°09'611.9
2018-Jan-02 02:00N 33°33' W 118°12'510.9
2018-Jan-02 01:30N 33°39' W 118°12'5 9.3
2018-Jan-02 01:00N 33°43' W 118°11'1 1.0
2018-Jan-02 00:18N 33°44' W 118°10'0 0.0
2018-Jan-01 23:59N 33°44' W 118°10'0 0.1
2018-Jan-01 23:30N 33°44' W 118°10'0 0.0
2018-Jan-01 22:48N 33°44' W 118°10'0 0.2
2018-Jan-01 22:30N 33°44' W 118°10'0 0.1
2018-Jan-01 22:00N 33°44' W 118°10'1 1.6
2018-Jan-01 21:30N 33°44' W 118°11'2 4.4
2018-Jan-01 21:00N 33°46' W 118°13'1 1.9
2018-Jan-01 20:30N 33°46' W 118°13'0 0.0
2017-Dec-31 20:09N 33°47' W 118°13'0 0.0
2017-Dec-31 20:00N 33°47' W 118°13'1 2.2
2017-Dec-31 19:28N 33°45' W 118°13'2 3.1
2017-Dec-31 18:55N 33°44' W 118°12'0 0.0
2017-Dec-31 14:47N 33°44' W 118°12'0 0.0
2017-Dec-31 12:11N 33°44' W 118°12'0 0.1
2017-Dec-31 11:59N 33°44' W 118°12'0 0.0
2017-Dec-31 11:17N 33°44' W 118°12'0 0.0
2017-Dec-31 10:59N 33°44' W 118°12'0 0.1
2017-Dec-31 10:11N 33°44' W 118°12'0 0.3
2017-Dec-31 09:59N 33°44' W 118°12'0 0.0
2017-Dec-31 09:17N 33°44' W 118°12'0 0.2
2017-Dec-31 08:59N 33°44' W 118°12'1 1.5
2017-Dec-31 08:25N 33°44' W 118°11'2 1.9
2017-Dec-31 07:25N 33°42' W 118°09'0 0.0
2017-Dec-31 06:45N 33°42' W 118°09'0 0.1
2017-Dec-31 06:28N 33°42' W 118°09'0 0.0
2017-Dec-31 06:01N 33°42' W 118°09'0 0.0
2017-Dec-31 05:30N 33°42' W 118°09'0 0.0
2017-Dec-31 04:56N 33°42' W 118°09'0 0.1
2017-Dec-31 04:29N 33°42' W 118°09'0 0.1
2017-Dec-31 04:00N 33°42' W 118°09'0 0.1
2017-Dec-31 03:30N 33°42' W 118°09'0 0.0
2017-Dec-31 03:00N 33°42' W 118°09'0 0.1
2017-Dec-31 02:31N 33°42' W 118°09'0 0.0
2017-Dec-31 02:00N 33°42' W 118°09'0 0.0
2017-Dec-31 01:31N 33°42' W 118°09'0 0.1
2017-Dec-31 01:01N 33°42' W 118°09'0 0.0
2017-Dec-31 00:30N 33°42' W 118°09'0 0.0
2017-Dec-31 00:00N 33°42' W 118°09'0 0.1
2017-Dec-30 23:06N 33°42' W 118°09'0 0.1
2017-Dec-30 23:00N 33°42' W 118°09'0 0.0
2017-Dec-30 22:30N 33°42' W 118°09'0 0.0
2017-Dec-30 22:00N 33°42' W 118°09'0 0.2
2017-Dec-30 21:30N 33°42' W 118°10'0 0.2
2017-Dec-30 21:00N 33°42' W 118°10'0 0.2
2017-Dec-30 20:28N 33°42' W 118°10'2 4.0
2017-Dec-30 20:00N 33°40' W 118°10'4 8.2
2017-Dec-30 19:30N 33°37' W 118°13'5 9.8
2017-Dec-30 18:58N 33°36' W 118°19'510.0
2017-Dec-30 18:29N 33°37' W 118°25'510.7
2017-Dec-30 18:00N 33°40' W 118°29'611.4
2017-Dec-30 17:31N 33°43' W 118°35'611.6
2017-Dec-30 17:00N 33°46' W 118°41'611.5
2017-Dec-30 16:30N 33°49' W 118°47'611.2
2017-Dec-30 16:00N 33°52' W 118°53'611.0
2017-Dec-30 15:30N 33°55' W 118°59'511.1
2017-Dec-30 15:00N 33°57' W 119°05'611.6
2017-Dec-30 14:27N 34°00' W 119°11'511.4
2017-Dec-30 14:00N 34°03' W 119°17'611.7
2017-Dec-30 13:29N 34°05' W 119°24'611.9
2017-Dec-30 13:00N 34°06' W 119°31'611.7
2017-Dec-30 12:29N 34°08' W 119°38'612.0
2017-Dec-30 11:59N 34°09' W 119°45'612.7
2017-Dec-30 11:30N 34°11' W 119°52'612.6
2017-Dec-30 11:00N 34°13' W 119°59'612.5
2017-Dec-30 10:29N 34°14' W 120°07'612.0
2017-Dec-30 10:00N 34°16' W 120°13'711.8
2017-Dec-30 09:26N 34°18' W 120°21'511.9
2017-Dec-30 08:59N 34°19' W 120°27'611.8
2017-Dec-30 08:30N 34°20' W 120°34'612.1
2017-Dec-30 08:00N 34°22' W 120°41'612.1
2017-Dec-30 07:30N 34°24' W 120°48'612.2
2017-Dec-30 07:01N 34°25' W 120°55'612.1
2017-Dec-30 06:29N 34°27' W 121°03'612.0
2017-Dec-30 06:00N 34°28' W 121°09'612.0
2017-Dec-30 05:31N 34°29' W 121°17'611.8
2017-Dec-30 05:01N 34°31' W 121°23'611.4
2017-Dec-30 04:30N 34°33' W 121°30'2 3.9
2017-Dec-30 04:00N 34°32' W 121°32'510.5
2017-Dec-30 03:31N 34°34' W 121°38'611.8
2017-Dec-30 03:01N 34°37' W 121°44'612.2
2017-Dec-30 02:30N 34°42' W 121°49'612.2
2017-Dec-30 02:00N 34°47' W 121°53'612.3
2017-Dec-30 01:31N 34°52' W 121°58'612.4
2017-Dec-30 01:01N 34°56' W 122°03'612.4
2017-Dec-30 00:31N 35°01' W 122°07'612.3
2017-Dec-30 00:01N 35°06' W 122°12'612.5
2017-Dec-29 23:31N 35°11' W 122°17'612.6
2017-Dec-29 23:01N 35°16' W 122°22'612.7
2017-Dec-29 22:31N 35°21' W 122°26'612.8
2017-Dec-29 22:00N 35°26' W 122°31'612.9
2017-Dec-29 21:30N 35°31' W 122°36'613.0
2017-Dec-29 21:01N 35°36' W 122°41'713.1
2017-Dec-29 20:30N 35°41' W 122°47'613.0
2017-Dec-29 20:01N 35°46' W 122°51'713.0
2017-Dec-29 19:30N 35°51' W 122°57'713.4
2017-Dec-29 19:01N 35°57' W 123°01'713.2
2017-Dec-29 18:31N 36°03' W 123°05'713.3
2017-Dec-29 18:01N 36°09' W 123°08'713.4
2017-Dec-29 17:31N 36°15' W 123°11'713.3
2017-Dec-29 17:01N 36°21' W 123°15'713.4
2017-Dec-29 16:31N 36°27' W 123°18'612.8
2017-Dec-29 16:00N 36°33' W 123°22'612.9
2017-Dec-29 15:30N 36°39' W 123°25'612.8
2017-Dec-29 15:01N 36°45' W 123°28'612.7
2017-Dec-29 14:30N 36°51' W 123°31'612.5
2017-Dec-29 14:00N 36°57' W 123°32'612.9
2017-Dec-29 13:31N 37°03' W 123°31'713.1
2017-Dec-29 13:01N 37°10' W 123°31'612.9
2017-Dec-29 12:30N 37°16' W 123°31'611.8
2017-Dec-29 12:00N 37°22' W 123°28'713.6
2017-Dec-29 11:30N 37°25' W 123°20'713.6
2017-Dec-29 11:00N 37°29' W 123°13'713.4
2017-Dec-29 10:30N 37°33' W 123°06'612.8
2017-Dec-29 10:00N 37°37' W 122°60'612.7
2017-Dec-29 09:30N 37°40' W 122°53'612.7
2017-Dec-29 09:00N 37°44' W 122°46'611.1
2017-Dec-29 08:30N 37°46' W 122°40'611.3
2017-Dec-29 08:00N 37°48' W 122°33'611.9
2017-Dec-29 07:30N 37°51' W 122°27'3 6.8
2017-Dec-29 07:00N 37°54' W 122°26'5 9.6
2017-Dec-29 06:30N 37°59' W 122°26'5 9.4
2017-Dec-29 06:00N 38°02' W 122°22'4 8.7
2017-Dec-29 05:30N 38°04' W 122°17'4 8.1
2017-Dec-29 05:00N 38°03' W 122°11'3 5.5
2017-Dec-29 04:30N 38°02' W 122°08'3 0.1
2017-Dec-27 04:20N 38°03' W 122°05'2 3.4
2017-Dec-27 03:51N 38°02' W 122°07'3 7.8
2017-Dec-27 03:30N 38°03' W 122°11'611.3
2017-Dec-27 03:00N 38°03' W 122°18'611.5
2017-Dec-27 02:30N 38°01' W 122°24'612.7
2017-Dec-27 02:01N 37°55' W 122°27'5 9.1
2017-Dec-27 01:30N 37°50' W 122°27'713.4
2017-Dec-27 01:01N 37°47' W 122°35'611.4
2017-Dec-27 00:31N 37°44' W 122°41'510.6
2017-Dec-27 00:01N 37°41' W 122°46'612.4
2017-Dec-26 23:30N 37°37' W 122°53'611.5
2017-Dec-26 23:00N 37°34' W 122°59'510.6
2017-Dec-26 22:30N 37°31' W 123°04'510.5
2017-Dec-26 22:01N 37°31' W 123°10'510.7
2017-Dec-26 21:30N 37°32' W 123°17'4 6.8
2017-Dec-26 20:55N 37°31' W 123°22'614.3
2017-Dec-26 20:30N 37°31' W 123°30'814.9
2017-Dec-26 20:00N 37°32' W 123°39'714.8
2017-Dec-26 19:30N 37°32' W 123°48'714.7
2017-Dec-26 19:01N 37°32' W 123°57'714.9
2017-Dec-26 18:30N 37°33' W 124°07'714.0
2017-Dec-26 18:00N 37°33' W 124°16'510.8
2017-Dec-26 17:30N 37°33' W 124°23'510.7
2017-Dec-26 17:00N 37°34' W 124°16'5 9.7
2017-Dec-26 16:30N 37°35' W 124°10'3 6.1
2017-Dec-26 16:00N 37°32' W 124°11'4 8.9
2017-Dec-26 15:30N 37°27' W 124°12'5 9.7
2017-Dec-26 15:00N 37°23' W 124°10'5 9.6
2017-Dec-26 14:30N 37°18' W 124°08'5 9.9
2017-Dec-26 14:00N 37°14' W 124°06'510.6
2017-Dec-26 13:30N 37°09' W 124°03'510.5
2017-Dec-26 13:01N 37°04' W 124°01'510.3
2017-Dec-26 12:30N 36°59' W 123°58'510.2
2017-Dec-26 12:00N 36°55' W 123°55'510.4
2017-Dec-26 11:31N 36°50' W 123°53'510.7
2017-Dec-26 11:00N 36°45' W 123°50'510.4
2017-Dec-26 10:30N 36°40' W 123°47'510.4
2017-Dec-26 09:59N 36°35' W 123°44'2210.4
2017-Dec-26 07:50N 36°15' W 123°34'3 9.9
2017-Dec-26 07:30N 36°12' W 123°32'510.0
2017-Dec-26 07:00N 36°07' W 123°30'510.2
2017-Dec-26 06:30N 36°02' W 123°27'5 9.9
2017-Dec-26 06:00N 35°58' W 123°25'510.1
2017-Dec-26 05:30N 35°53' W 123°22'5 9.9
2017-Dec-26 05:00N 35°49' W 123°20'5 9.8
2017-Dec-26 04:30N 35°44' W 123°17'5 9.9
2017-Dec-26 04:00N 35°40' W 123°15'510.0
2017-Dec-26 03:30N 35°35' W 123°13'510.1
2017-Dec-26 03:00N 35°30' W 123°10'510.2
2017-Dec-26 02:30N 35°26' W 123°08'510.3
2017-Dec-26 02:00N 35°21' W 123°05'510.4
2017-Dec-26 01:30N 35°16' W 123°03'510.7
2017-Dec-26 01:00N 35°11' W 123°01'510.6
2017-Dec-26 00:30N 35°06' W 122°58'510.4
2017-Dec-26 00:00N 35°02' W 122°55'510.3
2017-Dec-25 23:30N 34°57' W 122°52'510.3
2017-Dec-25 23:00N 34°52' W 122°50'510.6
2017-Dec-25 22:30N 34°47' W 122°48'510.5
2017-Dec-25 22:00N 34°42' W 122°45'510.3
2017-Dec-25 21:30N 34°38' W 122°43'510.7
2017-Dec-25 21:00N 34°33' W 122°40'612.0
2017-Dec-25 20:30N 34°28' W 122°36'713.0
2017-Dec-25 20:00N 34°28' W 122°28'613.0
2017-Dec-25 19:30N 34°28' W 122°20'713.3
2017-Dec-25 19:00N 34°28' W 122°12'713.1
2017-Dec-25 18:30N 34°28' W 122°04'713.2
2017-Dec-25 18:00N 34°28' W 121°56'713.4
2017-Dec-25 17:30N 34°28' W 121°48'713.5
2017-Dec-25 17:00N 34°28' W 121°40'713.4
2017-Dec-25 16:30N 34°28' W 121°32'713.4
2017-Dec-25 16:00N 34°28' W 121°24'713.5
2017-Dec-25 15:30N 34°28' W 121°15'713.3
2017-Dec-25 15:00N 34°28' W 121°07'612.9
2017-Dec-25 14:30N 34°28' W 120°59'612.8
2017-Dec-25 14:00N 34°26' W 120°52'712.9
2017-Dec-25 13:30N 34°24' W 120°44'612.6
2017-Dec-25 13:00N 34°22' W 120°38'713.0
2017-Dec-25 12:30N 34°21' W 120°30'713.1
2017-Dec-25 12:00N 34°19' W 120°22'713.6
2017-Dec-25 11:30N 34°17' W 120°14'713.3
2017-Dec-25 10:58N 34°15' W 120°06'713.4
2017-Dec-25 10:29N 34°14' W 119°58'613.2
2017-Dec-25 10:00N 34°12' W 119°51'712.8
2017-Dec-25 09:30N 34°10' W 119°43'713.3
2017-Dec-25 09:00N 34°09' W 119°36'713.2
2017-Dec-25 08:30N 34°07' W 119°28'713.4
2017-Dec-25 07:57N 34°05' W 119°19'613.4
2017-Dec-25 07:30N 34°03' W 119°12'612.7
2017-Dec-25 07:00N 33°60' W 119°06'611.8
2017-Dec-25 06:30N 33°57' W 118°60'611.8
2017-Dec-25 06:00N 33°54' W 118°53'612.1
2017-Dec-25 05:30N 33°51' W 118°47'611.9
2017-Dec-25 05:00N 33°48' W 118°41'611.7
2017-Dec-25 04:30N 33°45' W 118°35'612.0
2017-Dec-25 04:00N 33°42' W 118°28'611.5
2017-Dec-25 03:30N 33°39' W 118°22'510.9
2017-Dec-25 03:00N 33°39' W 118°16'4 7.9
2017-Dec-25 02:30N 33°42' W 118°13'0 0.2
2017-Dec-25 01:35N 33°42' W 118°13'0 0.0
2017-Dec-25 01:20N 33°42' W 118°13'0 0.0
2017-Dec-25 00:46N 33°42' W 118°13'0 0.0
2017-Dec-25 00:07N 33°42' W 118°13'0 0.1
2017-Dec-25 00:00N 33°42' W 118°13'0 0.3
2017-Dec-24 23:30N 33°42' W 118°13'3 5.7
2017-Dec-24 23:00N 33°43' W 118°16'  

Dump ship's entire track history